Station: Walungurru (Kintore)  

  Atmospheric Gas Attenuation - ITU Rec 676-11   ----------------- dB/100km -----------------
Date Time Temp RH % AH g/m3 Dew Point Wind Direction Speed kph Gust kph Barometer mB Rainfall Since 9am 24GHz 47GHz 76GHz 122GHz 134GHz 241GHz
08/05 12:00 18.9 39 6.32 4.7 22 33 1023.1 0 14.5 21.5 29.5 76.9 65.8 224.8
08/05 11:50 18.7 39 6.24 4.5 24 32 1023.3 0 14.4 21.4 29.3 76.4 65.1 222.2
08/05 11:40 18.9 40 6.48 5 17 20 1023.4 0 14.9 21.7 30.1 78.4 67.7 231.3
08/05 11:30 18.5 40 6.33 4.7 24 43 1023.6 0 14.6 21.6 29.7 77.5 66.3 226.4
08/05 11:20 18.7 40 6.4 4.8 22 24 1023.7 0 14.7 21.7 29.9 77.9 66.9 228.7
08/05 11:10 18.3 41 6.41 4.8 28 33 1023.8 0 14.8 21.8 30.1 78.4 67.4 230.2
08/05 11:00 18.2 41 6.37 4.7 24 48 1024 0 14.7 21.7 30.0 78.1 67.0 228.9
08/05 10:50 17.7 42 6.34 4.6 22 30 1024 0 14.6 21.8 30.1 78.3 67.1 229.1
08/05 10:40 17.6 43 6.45 4.9 20 24 1024.1 0 14.9 22.0 30.5 79.5 68.5 233.9
08/05 10:30 17.9 43 6.56 5.2 26 39 1024.1 0 15.1 22.1 30.8 80.2 69.5 237.5
08/05 10:20 17.8 43 6.53 5.1 35 43 1024.4 0 15.0 22.1 30.7 80.1 69.2 236.7
08/05 10:10 17.5 45 6.71 5.4 30 41 1024.5 0 15.4 22.4 31.5 82.1 71.6 245.0
08/05 10:00 17.3 45 6.63 5.3 28 41 1024.5 0 15.3 22.4 31.3 81.5 70.9 242.3
08/05 09:50 17.2 45 6.59 5.2 26 32 1024.4 0 15.2 22.3 31.2 81.2 70.5 240.9
08/05 09:40 16.8 45 6.43 4.8 28 46 1024.3 0 14.9 22.2 30.7 80.1 68.9 235.4
08/05 09:30 16.8 47 6.72 5.4 24 35 1024.3 0 15.5 22.6 31.8 82.9 72.4 247.5
08/05 09:20 16.9 48 6.9 5.8 20 28 1024.3 0 15.8 22.8 32.4 84.5 74.4 254.7
08/05 09:10 16 49 6.68 5.3 22 28 1024.1 0 15.4 22.7 31.9 83.3 72.6 248.2
08/05 09:00 15.8 49 6.6 5.1 19 30 1024.1 0 15.2 22.7 31.7 82.7 71.8 245.5
08/05 08:50 15.3 50 6.53 4.9 24 24 1024 0 15.1 22.7 31.6 82.5 71.4 244.0
08/05 08:40 15.2 49 6.36 4.6 28 32 1023.8 0 14.8 22.4 31.1 81.0 69.5 237.1
08/05 08:30 15.5 48 6.34 4.6 28 44 1023.7 0 14.7 22.3 30.9 80.5 68.9 235.3
08/05 08:20 15.4 47 6.17 4.2 32 37 1023.5 0 14.4 22.1 30.3 78.9 67.0 228.5
08/05 08:10 15.5 47 6.21 4.2 24 26 1023.4 0 14.4 22.1 30.4 79.2 67.4 229.8
08/05 08:00 15.5 45 5.95 3.6 35 46 1023.3 0 13.9 21.8 29.5 76.7 64.3 219.0
08/05 07:50 15.4 46 6.04 3.9 32 41 1023.3 0 14.1 21.9 29.8 77.6 65.4 223.0
08/05 07:40 15.4 45 5.91 3.5 35 43 1023.2 0 13.8 21.7 29.3 76.4 63.9 217.6
08/05 07:30 15.4 45 5.91 3.5 32 44 1023.1 0 13.8 21.7 29.3 76.4 63.9 217.6
08/05 07:20 14.8 47 5.95 3.6 20 24 1023.1 0 13.9 21.9 29.7 77.3 64.9 220.9
08/05 07:10 14.8 47 5.95 3.6 22 30 1023 0 13.9 21.9 29.7 77.3 64.9 220.9
08/05 07:00 15 47 6.03 3.8 26 37 1022.9 0 14.1 22.0 29.9 77.9 65.6 223.6
08/05 06:50 15 47 6.03 3.8 24 30 1022.8 0 14.1 22.0 29.9 77.9 65.6 223.6
08/05 06:40 15.4 45 5.91 3.5 28 33 1022.7 0 13.8 21.7 29.3 76.4 63.9 217.5
08/05 06:30 15.4 45 5.91 3.5 28 39 1022.6 0 13.8 21.7 29.3 76.4 63.9 217.5
08/05 06:20 15.8 44 5.92 3.6 37 43 1022.5 0 13.8 21.6 29.2 76.1 63.7 216.9
08/05 06:10 15.9 43 5.82 3.4 30 35 1022.4 0 13.6 21.4 28.8 75.0 62.4 212.5
08/05 06:00 16.1 43 5.89 3.5 33 39 1022.4 0 13.7 21.5 29.0 75.5 63.1 214.8
08/05 05:50 16.1 42 5.76 3.2 35 43 1022.3 0 13.5 21.3 28.5 74.3 61.6 209.5
08/05 05:40 16.1 43 5.89 3.5 32 35 1022.1 0 13.7 21.5 29.0 75.5 63.1 214.8
08/05 05:30 15.9 43 5.82 3.4 28 37 1022.1 0 13.6 21.4 28.8 75.0 62.4 212.4
08/05 05:20 15.7 43 5.75 3.2 24 28 1022 0 13.5 21.4 28.6 74.5 61.7 210.1
08/05 05:10 15.5 43 5.68 3 20 26 1022 0 13.3 21.3 28.5 74.0 61.1 207.7
08/05 05:00 16 42 5.72 3.1 26 35 1022.1 0 13.4 21.3 28.4 74.0 61.2 208.1
08/05 04:50 15.8 42 5.65 2.9 24 28 1022.1 0 13.2 21.2 28.3 73.5 60.5 205.8
08/05 04:40 15.9 42 5.69 3 26 32 1022.1 0 13.3 21.3 28.4 73.8 60.9 207.1
08/05 04:30 15.9 42 5.69 3 24 33 1022.1 0 13.3 21.3 28.4 73.8 60.9 207.1
08/05 04:20 15.9 42 5.69 3 26 28 1022.1 0 13.3 21.3 28.4 73.8 60.9 207.1
08/05 04:10 16 42 5.72 3.1 28 33 1022.1 0 13.4 21.3 28.4 74.0 61.2 208.1
08/05 04:00 16 42 5.72 3.1 24 33 1022.1 0 13.4 21.3 28.4 74.0 61.2 208.1
08/05 03:50 15.9 42 5.69 3 22 28 1022.1 0 13.3 21.3 28.4 73.8 60.9 207.1
08/05 03:40 16 42 5.72 3.1 20 24 1022.3 0 13.4 21.3 28.4 74.0 61.2 208.1
08/05 03:30 16 42 5.72 3.1 24 37 1022.4 0 13.4 21.3 28.4 74.0 61.2 208.2
08/05 03:20 16 41 5.59 2.8 26 32 1022.4 0 13.1 21.1 28.0 72.8 59.7 202.9
08/05 03:10 16 42 5.72 3.1 28 32 1022.4 0 13.4 21.3 28.4 74.0 61.2 208.2
08/05 03:00 16.3 40 5.55 2.7 30 43 1022.5 0 13.0 21.0 27.7 72.1 59.0 200.6
08/05 02:50 16.7 39 5.54 2.7 33 41 1022.4 0 13.0 20.9 27.6 71.7 58.6 199.2
08/05 02:40 16.7 39 5.54 2.7 35 44 1022.4 0 13.0 20.9 27.6 71.7 58.6 199.2
08/05 02:30 16.8 39 5.58 2.8 30 44 1022.4 0 13.1 20.9 27.7 72.0 59.0 200.5
08/05 02:20 17 39 5.64 3 30 37 1022.5 0 13.2 20.9 27.8 72.4 59.5 202.4
08/05 02:10 17 39 5.64 3 32 39 1022.5 0 13.2 20.9 27.8 72.4 59.5 202.4
08/05 02:00 17 39 5.64 3 32 44 1022.4 0 13.2 20.9 27.8 72.4 59.5 202.4
08/05 01:50 16.9 39 5.61 2.9 39 44 1022.4 0 13.1 20.9 27.8 72.2 59.3 201.5
08/05 01:40 16.2 41 5.65 2.9 26 32 1022.5 0 13.2 21.1 28.1 73.2 60.2 204.8
08/05 01:30 16.3 41 5.69 3 32 41 1022.5 0 13.3 21.2 28.2 73.4 60.6 206.2
08/05 01:20 16.2 42 5.79 3.3 32 39 1022.5 0 13.5 21.3 28.6 74.5 61.8 210.5
08/05 01:10 16.4 41 5.72 3.1 32 37 1022.5 0 13.4 21.2 28.3 73.6 60.9 207.2
08/05 01:00 16.4 41 5.72 3.1 30 43 1022.6 0 13.4 21.2 28.3 73.6 60.9 207.2
08/05 00:50 16.6 40 5.65 3 26 32 1022.7 0 13.2 21.1 28.0 72.8 59.9 203.9
08/05 00:40 17 39 5.64 3 30 35 1022.7 0 13.2 21.0 27.8 72.4 59.5 202.5
08/05 00:30 17 39 5.64 3 35 48 1022.8 0 13.2 21.0 27.8 72.4 59.5 202.5
08/05 00:20 16.8 40 5.72 3.1 33 39 1022.8 0 13.4 21.1 28.2 73.3 60.6 206.2
08/05 00:10 16.5 41 5.76 3.2 28 33 1022.9 0 13.5 21.2 28.4 73.9 61.3 208.6
08/05 00:00 16.8 40 5.72 3.1 33 46 1023 0 13.4 21.1 28.2 73.3 60.6 206.2
07/05 23:50 16.5 41 5.76 3.2 24 28 1023 0 13.5 21.2 28.4 74.0 61.3 208.6
07/05 23:40 17 40 5.79 3.3 35 41 1023 0 13.5 21.2 28.4 73.8 61.3 208.5
07/05 23:30 17.1 41 5.97 3.8 32 54 1023 0 13.9 21.4 28.9 75.4 63.3 215.5
07/05 23:20 17.1 40 5.82 3.4 30 35 1023 0 13.6 21.2 28.4 74.0 61.5 209.5
07/05 23:10 17.2 40 5.86 3.5 28 35 1023 0 13.6 21.2 28.5 74.3 61.9 210.8
07/05 23:00 17 41 5.93 3.7 24 39 1023.1 0 13.8 21.4 28.8 75.1 62.9 214.2
07/05 22:50 17.2 40 5.86 3.5 24 32 1023.1 0 13.6 21.2 28.5 74.3 61.9 210.9
07/05 22:40 17.5 40 5.96 3.8 35 39 1023 0 13.8 21.3 28.8 74.9 62.8 214.1
07/05 22:30 17.6 39 5.85 3.5 26 39 1023 0 13.6 21.1 28.4 73.8 61.5 209.4
07/05 22:20 17.6 39 5.85 3.5 26 33 1022.9 0 13.6 21.1 28.4 73.8 61.5 209.4
07/05 22:10 17.9 39 5.95 3.8 33 44 1023 0 13.8 21.2 28.6 74.4 62.4 212.6
07/05 22:00 17.7 39 5.88 3.6 24 39 1023 0 13.7 21.1 28.4 74.0 61.8 210.4
07/05 21:50 18 39 5.99 3.9 33 50 1023 0 13.9 21.2 28.7 74.7 62.8 214.0
07/05 21:40 17.7 39 5.88 3.6 22 30 1023 0 13.7 21.1 28.4 74.0 61.8 210.4
07/05 21:30 17.9 39 5.95 3.8 24 35 1022.8 0 13.8 21.2 28.6 74.4 62.4 212.6
07/05 21:20 18 38 5.84 3.5 24 30 1022.7 0 13.6 21.0 28.2 73.3 61.1 207.9
07/05 21:10 18 38 5.84 3.5 26 33 1022.7 0 13.6 21.0 28.2 73.3 61.1 207.9
07/05 21:00 18 38 5.84 3.5 22 41 1022.7 0 13.6 21.0 28.2 73.3 61.1 207.9
07/05 20:50 18.3 37 5.78 3.4 20 28 1022.6 0 13.4 20.9 27.9 72.5 60.2 204.8
07/05 20:40 18.5 37 5.85 3.6 22 26 1022.5 0 13.6 20.9 28.0 73.0 60.8 207.0
07/05 20:30 18.6 36 5.73 3.3 22 37 1022.3 0 13.3 20.7 27.6 71.8 59.4 202.0
07/05 20:20 18.7 36 5.76 3.3 26 32 1022.1 0 13.4 20.7 27.7 71.9 59.6 202.9
07/05 20:10 18.8 36 5.8 3.4 24 28 1022 0 13.5 20.7 27.7 72.2 60.0 204.2
07/05 20:00 18.9 35 5.67 3.1 24 39 1021.9 0 13.2 20.5 27.3 70.9 58.4 198.9
07/05 19:50 18.8 36 5.8 3.4 17 22 1021.8 0 13.5 20.7 27.7 72.2 60.0 204.2
07/05 19:40 19.3 35 5.8 3.5 24 30 1021.7 0 13.4 20.6 27.6 71.7 59.6 203.0
07/05 19:30 19.3 35 5.8 3.5 22 35 1021.5 0 13.4 20.6 27.6 71.7 59.6 202.9

Last Refresh: 08-May-2026 12:08:17

Bureau of Meteorology